Time;durP1;ratioP1;P1;durP2;ratioP2;P2;SDS_P1;SDS_P2;PMS_P1;PMS_P2;Temp;Humidity;BMP_temperature;BMP_pressure;BME280_temperature;BME280_humidity;BME280_pressure;Samples;Min_cycle;Max_cycle;Signal;HPM_P1;HPM_P2
2023/01/19 00:00:00;;;;;;;21.15;16.88;;;;;;;0.94;100.00;100089.50;5286808;28;20124;-82
2023/01/19 00:02:31;;;;;;;22.45;16.63;;;;;;;0.96;100.00;100084.16;5288928;28;20171;-83
2023/01/19 00:05:03;;;;;;;21.88;18.02;;;;;;;0.98;100.00;100085.72;5284156;28;20047;-80
2023/01/19 00:07:35;;;;;;;22.95;17.30;;;;;;;0.97;100.00;100083.22;5270092;28;20029;-82
2023/01/19 00:10:07;;;;;;;23.67;17.02;;;;;;;0.94;100.00;100076.38;5279067;28;20072;-82
2023/01/19 00:12:38;;;;;;;25.10;17.23;;;;;;;0.92;100.00;100079.09;5278593;28;20112;-83
2023/01/19 00:15:10;;;;;;;25.52;17.27;;;;;;;0.94;100.00;100084.25;5277115;28;20427;-82
2023/01/19 00:17:42;;;;;;;22.23;18.67;;;;;;;1.02;100.00;100086.41;5276332;28;20047;-82
2023/01/19 00:20:13;;;;;;;24.88;16.63;;;;;;;1.08;100.00;100084.19;5276594;28;20019;-80
2023/01/19 00:22:49;;;;;;;22.38;17.83;;;;;;;1.09;100.00;100093.75;5278921;28;20065;-82
2023/01/19 00:25:20;;;;;;;23.60;16.42;;;;;;;1.10;100.00;100091.97;5280999;28;20510;-82
2023/01/19 00:27:52;;;;;;;20.77;16.50;;;;;;;1.12;100.00;100095.34;5279222;28;20075;-83
2023/01/19 00:30:23;;;;;;;22.15;16.75;;;;;;;1.09;100.00;100096.41;5281059;28;20017;-81
2023/01/19 00:32:55;;;;;;;23.95;17.52;;;;;;;1.06;100.00;100106.25;5280788;28;20036;-82
2023/01/19 00:35:26;;;;;;;27.25;16.67;;;;;;;1.04;100.00;100106.34;5277748;28;20040;-80
2023/01/19 00:37:57;;;;;;;26.00;16.38;;;;;;;1.03;100.00;100106.44;5279542;28;20041;-81
2023/01/19 00:40:29;;;;;;;21.02;16.83;;;;;;;1.04;100.00;100105.53;5280962;28;20078;-82
2023/01/19 00:43:01;;;;;;;24.83;18.25;;;;;;;1.08;100.00;100102.56;5278955;28;20120;-81
2023/01/19 00:45:33;;;;;;;22.10;16.60;;;;;;;1.13;100.00;100102.28;5272956;28;20091;-80
2023/01/19 00:48:05;;;;;;;20.48;16.08;;;;;;;1.17;100.00;100102.94;5276315;28;20033;-83
2023/01/19 00:50:36;;;;;;;22.63;16.08;;;;;;;1.10;100.00;100099.84;5274802;28;20362;-82
2023/01/19 00:53:07;;;;;;;22.50;15.63;;;;;;;1.03;100.00;100086.28;5277439;28;20128;-82
2023/01/19 00:55:39;;;;;;;21.83;17.20;;;;;;;1.00;100.00;100096.13;5279327;28;20025;-82
2023/01/19 00:58:10;;;;;;;21.63;16.35;;;;;;;0.95;100.00;100088.56;5276925;28;20489;-81
2023/01/19 01:00:42;;;;;;;20.52;14.85;;;;;;;0.93;100.00;100083.41;5277206;28;20024;-82
2023/01/19 01:03:13;;;;;;;23.30;17.13;;;;;;;0.94;100.00;100095.59;5275110;28;20100;-82
2023/01/19 01:05:45;;;;;;;23.90;15.93;;;;;;;0.91;100.00;100090.56;5280375;28;20132;-82
2023/01/19 01:08:16;;;;;;;21.33;14.93;;;;;;;0.94;100.00;100087.72;5275757;28;20022;-83
2023/01/19 01:10:47;;;;;;;21.20;14.85;;;;;;;0.93;100.00;100091.28;5259290;28;20029;-82
2023/01/19 01:13:18;;;;;;;21.65;16.25;;;;;;;0.96;100.00;100111.25;5277240;28;20489;-83
2023/01/19 01:15:51;;;;;;;21.63;15.23;;;;;;;0.98;100.00;100098.84;5278626;28;20032;-83
2023/01/19 01:18:22;;;;;;;22.60;16.58;;;;;;;1.00;100.00;100098.75;5276619;28;20044;-82
2023/01/19 01:21:01;;;;;;;19.75;15.85;;;;;;;1.05;100.00;100097.53;5275012;28;20401;-82
2023/01/19 01:23:33;;;;;;;21.75;14.05;;;;;;;1.08;100.00;100110.47;5277544;28;20033;-82
2023/01/19 01:26:04;;;;;;;22.27;15.80;;;;;;;1.13;100.00;100118.03;5270723;28;20036;-81
2023/01/19 01:28:36;;;;;;;19.35;13.82;;;;;;;1.22;100.00;100111.34;5277054;28;20037;-82
2023/01/19 01:31:07;;;;;;;18.02;13.23;;;;;;;1.29;100.00;100110.00;5276916;28;20049;-81
2023/01/19 01:33:38;;;;;;;17.55;12.35;;;;;;;1.35;100.00;100098.25;5276980;28;20075;-81
2023/01/19 01:36:10;;;;;;;18.23;12.43;;;;;;;1.41;100.00;100095.22;5274578;28;20501;-82
2023/01/19 01:38:42;;;;;;;19.52;13.65;;;;;;;1.43;100.00;100099.41;5275521;28;20040;-81
2023/01/19 01:41:13;;;;;;;17.30;12.85;;;;;;;1.40;100.00;100104.03;5275037;28;20055;-82
2023/01/19 01:43:48;;;;;;;18.88;12.50;;;;;;;1.41;100.00;100108.38;5277210;28;20162;-82
2023/01/19 01:46:20;;;;;;;17.63;11.85;;;;;;;1.40;100.00;100104.03;5273217;28;21252;-83
2023/01/19 01:48:54;;;;;;;20.27;11.93;;;;;;;1.43;100.00;100117.81;5275647;28;20032;-82
2023/01/19 01:51:39;;;;;;;18.60;12.57;;;;;;;1.45;100.00;100123.81;5275648;28;20029;-81
2023/01/19 01:54:32;;;;;;;16.73;12.57;;;;;;;1.45;100.00;100123.81;5257933;28;20033;-82
2023/01/19 01:57:11;;;;;;;16.80;12.13;;;;;;;1.37;100.00;100126.13;5272921;28;20100;-82
2023/01/19 01:59:47;;;;;;;17.15;12.10;;;;;;;1.23;100.00;100127.03;5273689;28;20031;-82
2023/01/19 02:05:34;;;;;;;18.77;11.23;;;;;;;0.78;100.00;100134.28;5273450;28;20120;-82
2023/01/19 02:13:51;;;;;;;18.35;11.95;;;;;;;0.44;100.00;100132.91;5277651;28;20017;-83
2023/01/19 02:16:23;;;;;;;25.73;15.00;;;;;;;0.46;100.00;100134.53;5272691;28;20159;-83
2023/01/19 02:18:54;;;;;;;24.33;13.50;;;;;;;0.49;100.00;100129.09;5273184;28;20029;-82
2023/01/19 02:21:35;;;;;;;21.30;13.48;;;;;;;0.49;100.00;100131.72;5272613;28;20481;-83
2023/01/19 02:24:07;;;;;;;21.83;13.10;;;;;;;0.46;100.00;100139.75;5275921;28;20029;-82
2023/01/19 02:26:42;;;;;;;22.73;13.93;;;;;;;0.46;100.00;100142.38;5276262;28;20025;-82
2023/01/19 02:29:23;;;;;;;21.00;14.07;;;;;;;0.48;100.00;100143.13;5275323;28;20460;-82
2023/01/19 02:31:56;;;;;;;27.98;15.32;;;;;;;0.50;100.00;100149.13;5274397;28;20489;-82
2023/01/19 02:34:28;;;;;;;26.48;17.35;;;;;;;0.54;100.00;100144.53;5274292;28;20036;-83
2023/01/19 02:37:06;;;;;;;25.95;16.02;;;;;;;0.55;100.00;100154.09;5272005;28;20028;-82
2023/01/19 02:39:44;;;;;;;29.80;17.58;;;;;;;0.60;100.00;100151.16;5274663;28;20056;-82
2023/01/19 02:42:26;;;;;;;25.73;16.83;;;;;;;0.56;100.00;100148.75;5250864;28;20032;-83
2023/01/19 02:44:58;;;;;;;26.40;17.58;;;;;;;0.52;100.00;100163.00;5276239;28;20024;-82
2023/01/19 02:47:37;;;;;;;32.33;19.33;;;;;;;0.54;100.00;100155.03;5275546;28;20036;-82
2023/01/19 02:50:30;;;;;;;26.42;19.20;;;;;;;0.49;100.00;100160.56;5276317;28;20033;-83
2023/01/19 02:53:15;;;;;;;29.67;22.40;;;;;;;0.42;100.00;100164.53;5273111;28;20536;-83
2023/01/19 02:55:55;;;;;;;29.67;20.48;;;;;;;0.34;100.00;100162.34;5274905;28;20025;-83
2023/01/19 02:58:48;;;;;;;33.92;22.92;;;;;;;0.26;100.00;100169.81;5275004;28;20115;-83
2023/01/19 03:01:26;;;;;;;27.77;19.75;;;;;;;0.18;100.00;100170.31;5276076;28;20510;-83
2023/01/19 03:04:26;;;;;;;27.73;22.88;;;;;;;0.22;100.00;100170.13;5275990;28;20113;-83
2023/01/19 03:07:23;;;;;;;32.85;21.33;;;;;;;0.16;100.00;100173.97;5279003;28;20083;-83
2023/01/19 03:10:05;;;;;;;31.10;20.27;;;;;;;0.09;100.00;100165.63;5282930;28;20454;-83
2023/01/19 03:12:37;;;;;;;39.17;26.83;;;;;;;0.08;100.00;100174.41;5281898;28;20025;-83
2023/01/19 03:15:19;;;;;;;41.25;26.27;;;;;;;0.03;100.00;100168.59;5286678;28;20025;-82
2023/01/19 03:17:52;;;;;;;39.30;25.45;;;;;;;0.01;100.00;100188.00;5283508;28;20112;-82
2023/01/19 03:20:24;;;;;;;37.67;25.42;;;;;;;-0.02;100.00;100179.38;5281835;28;20386;-82
2023/01/19 03:23:01;;;;;;;40.60;29.45;;;;;;;-0.03;100.00;100193.41;5277799;28;20131;-83
2023/01/19 03:25:36;;;;;;;43.10;29.20;;;;;;;-0.05;100.00;100192.66;5275776;28;20147;-82
2023/01/19 03:28:07;;;;;;;39.13;30.33;;;;;;;-0.02;100.00;100189.88;5275093;28;20074;-82
2023/01/19 03:30:45;;;;;;;37.35;25.25;;;;;;;-0.06;100.00;100187.50;5277982;28;21240;-82
2023/01/19 03:33:25;;;;;;;37.65;26.13;;;;;;;-0.07;100.00;100202.41;5276714;28;20040;-81
2023/01/19 03:36:02;;;;;;;38.60;27.98;;;;;;;-0.12;100.00;100207.06;5277408;28;20063;-82
2023/01/19 03:38:36;;;;;;;40.03;27.63;;;;;;;-0.11;100.00;100195.63;5276534;28;20033;-83
2023/01/19 03:41:12;;;;;;;41.67;28.15;;;;;;;-0.20;100.00;100206.66;5277251;28;20033;-82
2023/01/19 03:43:46;;;;;;;39.63;28.40;;;;;;;-0.18;100.00;100217.06;5275438;28;20087;-82
2023/01/19 03:46:19;;;;;;;40.33;26.75;;;;;;;-0.24;100.00;100210.41;5275755;28;20114;-82
2023/01/19 03:48:51;;;;;;;41.22;29.52;;;;;;;-0.25;100.00;100216.56;5274466;28;20067;-82
2023/01/19 03:51:22;;;;;;;41.33;30.20;;;;;;;-0.26;100.00;100217.50;5274198;28;20385;-82
2023/01/19 03:53:53;;;;;;;42.05;26.52;;;;;;;-0.29;100.00;100218.50;5274010;28;20401;-82
2023/01/19 03:56:25;;;;;;;38.72;26.70;;;;;;;-0.28;100.00;100224.59;5275184;28;20024;-81
2023/01/19 03:58:56;;;;;;;40.67;27.08;;;;;;;-0.28;100.00;100225.47;5274858;28;20370;-82
2023/01/19 04:01:27;;;;;;;38.42;25.05;;;;;;;-0.28;100.00;100237.69;5276737;28;20109;-82
2023/01/19 04:03:59;;;;;;;35.28;26.08;;;;;;;-0.30;100.00;100242.19;5270893;28;20029;-83
2023/01/19 04:06:30;;;;;;;39.15;25.90;;;;;;;-0.34;100.00;100219.72;5274366;28;20033;-82
2023/01/19 04:09:02;;;;;;;40.85;27.10;;;;;;;-0.35;100.00;100232.00;5274045;28;20104;-82
2023/01/19 04:11:33;;;;;;;35.03;23.85;;;;;;;-0.34;100.00;100223.19;5273390;28;20021;-82
2023/01/19 04:14:04;;;;;;;31.67;21.25;;;;;;;-0.34;100.00;100240.69;5275209;28;20033;-82
2023/01/19 04:16:36;;;;;;;26.65;18.70;;;;;;;-0.36;100.00;100246.00;5273150;28;20100;-82
2023/01/19 04:19:07;;;;;;;27.77;19.13;;;;;;;-0.30;100.00;100263.16;5273201;28;20040;-82
2023/01/19 04:21:38;;;;;;;28.38;19.50;;;;;;;-0.34;100.00;100254.63;5254674;28;20382;-83
2023/01/19 04:24:10;;;;;;;24.73;17.60;;;;;;;-0.34;100.00;100261.66;5275888;28;20436;-81
2023/01/19 04:26:41;;;;;;;23.52;16.20;;;;;;;-0.36;100.00;100269.59;5276049;28;20114;-81
2023/01/19 04:29:13;;;;;;;23.45;15.30;;;;;;;-0.35;100.00;100279.16;5283953;28;20021;-82
2023/01/19 04:31:44;;;;;;;19.55;13.88;;;;;;;-0.37;100.00;100273.13;5278140;28;20041;-83
2023/01/19 04:34:16;;;;;;;14.88;11.13;;;;;;;-0.39;100.00;100272.38;5277636;28;20455;-81
2023/01/19 04:36:49;;;;;;;16.20;12.75;;;;;;;-0.34;100.00;100285.25;5276438;28;20476;-82
2023/01/19 04:39:21;;;;;;;17.42;12.18;;;;;;;-0.34;100.00;100280.00;5272835;28;20033;-83
2023/01/19 04:41:53;;;;;;;21.27;12.77;;;;;;;-0.34;100.00;100280.84;5273930;28;20048;-83
2023/01/19 04:44:24;;;;;;;17.27;11.38;;;;;;;-0.35;100.00;100296.63;5272374;28;20022;-82
2023/01/19 04:46:56;;;;;;;14.77;11.48;;;;;;;-0.34;100.00;100288.69;5271963;28;20417;-83
2023/01/19 04:49:27;;;;;;;14.85;10.25;;;;;;;-0.34;100.00;100291.31;5273974;28;20037;-84
2023/01/19 04:51:58;;;;;;;13.35;9.68;;;;;;;-0.37;100.00;100273.13;5256492;28;20029;-82
2023/01/19 04:54:30;;;;;;;16.30;10.57;;;;;;;-0.35;100.00;100260.81;5273248;28;20033;-82
2023/01/19 04:57:01;;;;;;;14.38;10.45;;;;;;;-0.25;100.00;100264.56;5275878;28;20103;-82
2023/01/19 04:59:32;;;;;;;18.40;14.00;;;;;;;-0.27;100.00;100242.84;5277853;28;20482;-83
2023/01/19 05:02:04;;;;;;;20.38;14.73;;;;;;;-0.20;100.00;100232.88;5277316;28;20312;-82
2023/01/19 05:04:35;;;;;;;22.95;16.40;;;;;;;-0.20;100.00;100230.25;5276824;28;20116;-81
2023/01/19 05:07:06;;;;;;;23.98;17.73;;;;;;;-0.21;100.00;100215.44;5278442;28;38022;-82
2023/01/19 05:09:38;;;;;;;24.45;17.25;;;;;;;-0.18;100.00;100238.88;5277903;28;20368;-83
2023/01/19 05:12:10;;;;;;;22.83;14.75;;;;;;;-0.13;100.00;100221.09;5261205;28;20021;-83
2023/01/19 05:14:42;;;;;;;19.35;14.25;;;;;;;-0.08;100.00;100216.44;5274238;28;20044;-83
2023/01/19 05:17:13;;;;;;;21.30;13.60;;;;;;;-0.14;100.00;100214.19;5275440;28;20025;-83
2023/01/19 05:19:44;;;;;;;19.58;13.52;;;;;;;-0.08;100.00;100226.91;5276272;28;20059;-83
2023/01/19 05:22:16;;;;;;;19.10;13.85;;;;;;;-0.04;100.00;100227.59;5276283;28;20047;-83
2023/01/19 05:24:47;;;;;;;21.10;13.00;;;;;;;-0.05;100.00;100228.53;5272422;28;20091;-82
2023/01/19 05:27:18;;;;;;;22.98;14.68;;;;;;;-0.08;100.00;100231.31;5276656;28;20045;-82
2023/01/19 05:29:50;;;;;;;24.45;15.60;;;;;;;-0.12;100.00;100245.53;5276145;28;20025;-82
2023/01/19 05:32:21;;;;;;;29.45;21.52;;;;;;;-0.13;100.00;100249.94;5275268;28;20032;-82
2023/01/19 05:34:52;;;;;;;31.35;19.70;;;;;;;-0.12;100.00;100251.63;5276130;28;20171;-82
2023/01/19 05:37:24;;;;;;;36.38;25.52;;;;;;;-0.13;100.00;100255.19;5278035;28;20028;-83
2023/01/19 05:39:55;;;;;;;41.22;28.63;;;;;;;-0.15;100.00;100249.19;5278199;28;20024;-82
2023/01/19 05:42:26;;;;;;;35.88;25.05;;;;;;;-0.11;100.00;100253.31;5274553;28;20428;-82
2023/01/19 05:44:58;;;;;;;37.88;24.05;;;;;;;-0.10;100.00;100252.38;5276483;28;20036;-83
2023/01/19 05:47:29;;;;;;;34.03;21.60;;;;;;;-0.08;100.00;100253.13;5276186;28;20029;-83
2023/01/19 05:50:01;;;;;;;34.85;22.38;;;;;;;-0.07;100.00;100259.22;5254617;28;20040;-82
2023/01/19 05:52:32;;;;;;;39.83;24.25;;;;;;;-0.05;100.00;100252.97;5275129;28;25652;-82
2023/01/19 05:55:04;;;;;;;36.33;26.02;;;;;;;-0.02;100.00;100265.91;5278188;28;20047;-82
2023/01/19 05:57:35;;;;;;;37.88;25.38;;;;;;;0.01;100.00;100253.53;5275033;28;20039;-83
2023/01/19 06:00:07;;;;;;;35.90;24.92;;;;;;;-0.01;100.00;100264.13;5275136;28;20025;-82
2023/01/19 06:02:38;;;;;;;38.67;23.17;;;;;;;-0.01;100.00;100267.56;5275446;28;20101;-83
2023/01/19 06:05:10;;;;;;;38.20;23.83;;;;;;;-0.01;100.00;100267.56;5276414;28;20190;-83
2023/01/19 06:07:41;;;;;;;41.47;24.85;;;;;;;-0.01;100.00;100264.13;5276527;28;20075;-83
2023/01/19 06:10:12;;;;;;;36.28;23.50;;;;;;;0.12;100.00;100279.97;5275632;28;20033;-83
2023/01/19 06:12:44;;;;;;;38.22;24.58;;;;;;;0.10;100.00;100279.22;5273200;28;20476;-82
2023/01/19 06:15:16;;;;;;;37.95;27.60;;;;;;;0.09;100.00;100270.53;5276012;28;20033;-83
2023/01/19 06:17:47;;;;;;;40.28;27.63;;;;;;;0.07;100.00;100279.41;5278411;28;20080;-82
2023/01/19 06:20:19;;;;;;;45.00;27.55;;;;;;;0.14;100.00;100289.47;5276804;28;20457;-82
2023/01/19 06:22:50;;;;;;;44.30;27.20;;;;;;;0.22;100.00;100290.78;5275748;28;20044;-82
2023/01/19 06:25:22;;;;;;;39.47;27.10;;;;;;;0.16;100.00;100300.69;5274422;28;20021;-82
2023/01/19 06:27:53;;;;;;;47.03;32.97;;;;;;;0.38;100.00;100288.94;5276039;28;20029;-82
2023/01/19 06:30:25;;;;;;;51.67;37.40;;;;;;;0.32;100.00;100295.41;5273384;28;20071;-82
2023/01/19 06:32:57;;;;;;;58.95;43.83;;;;;;;0.38;100.00;100296.81;5254491;28;20028;-82
2023/01/19 06:35:28;;;;;;;63.45;45.75;;;;;;;0.35;100.00;100297.00;5273999;28;20025;-81
2023/01/19 06:37:59;;;;;;;61.92;45.03;;;;;;;0.35;100.00;100308.34;5275858;28;20151;-81
2023/01/19 06:40:31;;;;;;;63.28;42.83;;;;;;;0.34;100.00;100305.81;5259056;28;20060;-82
2023/01/19 06:43:02;;;;;;;62.47;41.90;;;;;;;0.37;100.00;100305.63;5282200;28;20029;-81
2023/01/19 06:45:33;;;;;;;66.57;46.05;;;;;;;0.29;100.00;100300.81;5282957;28;20029;-81
2023/01/19 06:48:05;;;;;;;67.65;50.15;;;;;;;0.20;100.00;100309.22;5278277;28;20025;-81
2023/01/19 06:50:36;;;;;;;67.13;45.67;;;;;;;0.18;100.00;100311.09;5265119;28;20021;-81
2023/01/19 06:53:08;;;;;;;64.18;48.30;;;;;;;0.22;100.00;100315.22;5290524;28;20033;-81
2023/01/19 06:55:39;;;;;;;69.97;54.50;;;;;;;0.21;100.00;100321.44;5276256;28;20028;-81
2023/01/19 06:58:13;;;;;;;71.15;46.70;;;;;;;0.22;100.00;100330.13;5278519;28;20037;-82
2023/01/19 07:00:44;;;;;;;76.45;56.25;;;;;;;0.15;100.00;100333.09;5279477;28;20025;-80
2023/01/19 07:03:19;;;;;;;79.47;53.15;;;;;;;0.21;100.00;100342.41;5280266;28;20028;-81
2023/01/19 07:05:53;;;;;;;76.28;51.03;;;;;;;0.24;100.00;100338.75;5276706;28;20017;-81
2023/01/19 07:08:25;;;;;;;73.00;51.15;;;;;;;0.26;100.00;100342.97;5273950;28;20112;-82
2023/01/19 07:11:01;;;;;;;70.45;49.35;;;;;;;0.25;100.00;100356.19;5279500;28;20115;-83
2023/01/19 07:13:33;;;;;;;73.07;49.80;;;;;;;0.27;100.00;100346.47;5283566;28;20036;-83
2023/01/19 07:16:07;;;;;;;69.07;47.45;;;;;;;0.34;100.00;100353.88;5303944;28;20099;-83
2023/01/19 07:18:39;;;;;;;76.20;50.28;;;;;;;0.31;100.00;100361.06;5289017;28;20094;-82
2023/01/19 07:21:10;;;;;;;79.38;51.72;;;;;;;0.38;100.00;100359.78;5278192;28;20037;-82
2023/01/19 07:23:42;;;;;;;81.03;53.42;;;;;;;0.34;100.00;100359.13;5282894;28;20028;-83
2023/01/19 07:26:17;;;;;;;83.00;49.90;;;;;;;0.32;100.00;100366.25;5255713;28;20029;-82
2023/01/19 07:28:49;;;;;;;73.80;47.28;;;;;;;0.35;100.00;100365.19;5277295;28;20029;-81
2023/01/19 07:31:20;;;;;;;77.75;48.65;;;;;;;0.32;100.00;100373.28;5262598;28;20021;-82
2023/01/19 07:33:52;;;;;;;79.95;51.30;;;;;;;0.38;100.00;100375.53;5274695;28;20032;-82
2023/01/19 07:36:23;;;;;;;73.30;49.20;;;;;;;0.32;100.00;100374.09;5280046;28;20394;-82
2023/01/19 07:38:54;;;;;;;79.30;50.20;;;;;;;0.38;100.00;100389.47;5271937;28;20048;-82
2023/01/19 07:41:26;;;;;;;76.75;50.22;;;;;;;0.36;100.00;100380.84;5282406;28;20036;-82
2023/01/19 07:43:57;;;;;;;80.80;48.25;;;;;;;0.30;100.00;100383.84;5272871;28;20052;-82
2023/01/19 07:46:28;;;;;;;75.90;48.38;;;;;;;0.23;100.00;100384.28;5265192;28;20091;-82
2023/01/19 07:48:59;;;;;;;75.07;46.72;;;;;;;0.27;100.00;100398.94;5277719;28;20013;-83
2023/01/19 07:51:34;;;;;;;84.57;58.15;;;;;;;0.24;100.00;100402.56;5276390;28;20105;-82
2023/01/19 07:54:07;;;;;;;77.95;49.33;;;;;;;0.23;100.00;100400.88;5273227;28;20108;-82
2023/01/19 07:56:38;;;;;;;80.60;47.55;;;;;;;0.24;100.00;100401.72;5283201;28;20442;-82
2023/01/19 07:59:10;;;;;;;77.80;45.33;;;;;;;0.15;100.00;100401.28;5255457;28;20075;-81
2023/01/19 08:01:41;;;;;;;78.25;46.53;;;;;;;0.22;100.00;100407.03;5276021;28;20033;-82
2023/01/19 08:04:12;;;;;;;80.28;47.55;;;;;;;0.27;100.00;100415.50;5279130;28;20047;-82
2023/01/19 08:06:45;;;;;;;76.88;45.60;;;;;;;0.28;100.00;100413.72;5284709;28;20383;-81
2023/01/19 08:09:17;;;;;;;80.85;45.22;;;;;;;0.25;100.00;100421.78;5296035;28;20025;-81
2023/01/19 08:11:48;;;;;;;78.85;43.30;;;;;;;0.27;100.00;100420.75;5285357;28;20381;-82
2023/01/19 08:14:19;;;;;;;89.15;48.25;;;;;;;0.25;100.00;100424.41;5286848;28;20025;-81
2023/01/19 08:16:50;;;;;;;88.10;47.80;;;;;;;0.21;100.00;100421.09;5280843;28;20493;-82
2023/01/19 08:19:22;;;;;;;87.72;51.20;;;;;;;0.13;100.00;100421.53;5279988;28;30063;-80
2023/01/19 08:21:55;;;;;;;91.72;47.08;;;;;;;0.17;100.00;100437.94;5257888;28;20076;-82
2023/01/19 08:24:27;;;;;;;91.88;47.78;;;;;;;0.20;100.00;100435.16;5284254;28;20051;-81
2023/01/19 08:27:00;;;;;;;101.93;48.72;;;;;;;0.24;100.00;100446.31;5268923;28;20124;-82
2023/01/19 08:29:32;;;;;;;94.68;46.17;;;;;;;0.27;100.00;100441.72;5269176;28;20110;-81
2023/01/19 08:32:05;;;;;;;92.43;49.22;;;;;;;0.30;100.00;100449.44;5270711;28;20029;-80
2023/01/19 08:34:36;;;;;;;104.18;53.83;;;;;;;0.38;100.00;100459.50;5289288;28;20037;-81
2023/01/19 08:37:08;;;;;;;83.05;41.88;;;;;;;0.43;100.00;100456.63;5283790;28;20453;-82
2023/01/19 08:39:39;;;;;;;102.43;47.15;;;;;;;0.30;100.00;100456.44;5277207;28;20140;-81
2023/01/19 08:42:10;;;;;;;93.13;46.33;;;;;;;0.35;100.00;100464.91;5277426;28;20074;-82
2023/01/19 08:44:41;;;;;;;100.97;51.10;;;;;;;0.32;100.00;100465.09;5281237;28;20049;-82
2023/01/19 08:47:13;;;;;;;101.35;48.42;;;;;;;0.30;100.00;100470.44;5280154;28;20024;-81
2023/01/19 08:49:45;;;;;;;100.78;44.35;;;;;;;0.37;100.00;100465.69;5261914;28;20244;-81
2023/01/19 08:52:16;;;;;;;95.18;47.40;;;;;;;0.36;100.00;100483.19;5281767;28;20355;-82
2023/01/19 08:54:47;;;;;;;104.78;54.47;;;;;;;0.36;100.00;100485.81;5280737;28;27432;-81
2023/01/19 08:57:18;;;;;;;107.63;45.67;;;;;;;0.34;100.00;100485.06;5282773;28;20096;-81
2023/01/19 08:59:50;;;;;;;90.25;42.45;;;;;;;0.45;100.00;100491.50;5284637;28;20421;-81
2023/01/19 09:02:21;;;;;;;109.38;49.88;;;;;;;0.45;100.00;100487.06;5288892;28;20528;-81
2023/01/19 09:04:52;;;;;;;110.53;49.20;;;;;;;0.49;100.00;100498.25;5281018;28;20470;-81
2023/01/19 09:07:24;;;;;;;104.43;44.28;;;;;;;0.47;100.00;100495.72;5282225;28;20037;-82
2023/01/19 09:09:55;;;;;;;89.80;40.45;;;;;;;0.47;100.00;100494.88;5262162;28;20025;-81
2023/01/19 09:12:26;;;;;;;100.03;47.33;;;;;;;0.63;100.00;100494.84;5279021;28;20028;-81
2023/01/19 09:14:58;;;;;;;97.82;48.15;;;;;;;0.73;100.00;100496.00;5277316;28;32124;-81
2023/01/19 09:17:29;;;;;;;110.93;52.95;;;;;;;0.95;100.00;100498.25;5277304;28;20037;-82
2023/01/19 09:20:00;;;;;;;102.93;46.65;;;;;;;1.14;100.00;100495.41;5278549;28;20025;-81
2023/01/19 09:22:32;;;;;;;90.70;47.55;;;;;;;1.07;100.00;100496.69;5276369;28;20148;-81
2023/01/19 09:25:04;;;;;;;95.20;48.53;;;;;;;1.13;100.00;100497.16;5276122;28;20048;-81
2023/01/19 09:27:35;;;;;;;82.50;41.80;;;;;;;1.06;100.00;100498.47;5279519;28;20478;-82
2023/01/19 09:30:10;;;;;;;78.53;41.53;;;;;;;1.11;100.00;100500.84;5277535;28;20025;-82
2023/01/19 09:32:41;;;;;;;75.18;43.03;;;;;;;1.19;100.00;100503.84;5258140;28;20032;-81
2023/01/19 09:35:13;;;;;;;75.95;41.53;;;;;;;1.24;100.00;100512.28;5277326;28;20485;-82
2023/01/19 09:37:46;;;;;;;82.82;44.60;;;;;;;1.26;100.00;100510.44;5276018;28;20040;-83
2023/01/19 09:40:19;;;;;;;69.35;37.42;;;;;;;1.38;100.00;100508.03;5275172;28;20484;-82
2023/01/19 09:43:32;;;;;;;63.25;37.13;;;;;;;1.45;100.00;100512.81;5275667;28;20780;-81
2023/01/19 09:46:18;;;;;;;62.53;36.78;;;;;;;1.39;100.00;100517.59;5258010;28;20548;-81
2023/01/19 09:48:52;;;;;;;58.08;32.47;;;;;;;1.28;100.00;100529.59;5273813;28;20024;-84
2023/01/19 09:51:39;;;;;;;60.17;32.25;;;;;;;1.27;100.00;100524.44;5264217;28;20022;-83
2023/01/19 09:54:15;;;;;;;58.30;31.92;;;;;;;1.22;100.00;100519.44;5274588;28;20029;-82
2023/01/19 09:56:47;;;;;;;53.53;32.83;;;;;;;1.44;100.00;100529.53;5258194;28;20033;-80
2023/01/19 09:59:27;;;;;;;50.88;29.55;;;;;;;1.34;100.00;100531.00;5273642;28;20037;-80
2023/01/19 10:02:17;;;;;;;57.13;32.95;;;;;;;1.54;100.00;100532.44;5283500;28;20033;-80
2023/01/19 10:04:57;;;;;;;52.42;29.83;;;;;;;1.65;100.00;100535.28;5270631;28;20057;-80
2023/01/19 10:07:52;;;;;;;50.42;29.05;;;;;;;1.77;100.00;100543.34;5278244;28;20044;-80
2023/01/19 10:10:29;;;;;;;51.30;26.88;;;;;;;1.82;100.00;100552.69;5251847;28;20108;-80
2023/01/19 10:13:24;;;;;;;41.42;25.23;;;;;;;2.01;100.00;100551.53;5269936;28;20017;-81
2023/01/19 10:15:58;;;;;;;43.72;24.92;;;;;;;2.09;100.00;100557.19;5273656;28;20111;-81
2023/01/19 10:18:46;;;;;;;40.72;25.02;;;;;;;2.25;100.00;100559.69;5282733;28;20025;-80
2023/01/19 10:21:17;;;;;;;39.45;24.05;;;;;;;2.18;100.00;100551.34;5263746;28;20425;-80
2023/01/19 10:24:14;;;;;;;38.83;23.75;;;;;;;2.17;100.00;100552.25;5260176;28;20029;-80
2023/01/19 10:26:51;;;;;;;36.40;21.53;;;;;;;2.22;100.00;100552.00;5269361;28;20027;-80
2023/01/19 10:29:36;;;;;;;40.80;24.50;;;;;;;2.34;100.00;100553.00;5278276;28;20021;-81
2023/01/19 10:32:09;;;;;;;31.27;20.15;;;;;;;2.22;100.00;100554.63;5279164;28;20501;-81
2023/01/19 10:34:41;;;;;;;29.92;18.65;;;;;;;1.94;100.00;100551.06;5278993;28;20021;-81
2023/01/19 10:37:29;;;;;;;34.33;18.98;;;;;;;2.08;100.00;100553.69;5274977;28;20021;-81
2023/01/19 10:40:09;;;;;;;32.97;19.15;;;;;;;2.11;100.00;100560.56;5272131;28;20419;-81
2023/01/19 10:42:41;;;;;;;34.38;20.23;;;;;;;1.94;100.00;100552.84;5264352;28;20163;-81
2023/01/19 10:45:22;;;;;;;34.08;20.95;;;;;;;2.07;100.00;100552.00;5280073;28;20127;-82
2023/01/19 10:47:56;;;;;;;39.67;21.23;;;;;;;2.09;100.00;100554.53;5258307;28;20049;-81
2023/01/19 10:50:33;;;;;;;36.88;20.30;;;;;;;2.17;100.00;100556.69;5278408;28;20046;-80
2023/01/19 10:53:15;;;;;;;40.03;23.23;;;;;;;2.18;100.00;100559.22;5275653;28;20013;-81
2023/01/19 10:56:20;;;;;;;32.97;20.80;;;;;;;2.30;100.00;100565.53;5276797;28;20052;-82
2023/01/19 10:58:51;;;;;;;29.83;21.25;;;;;;;2.20;100.00;100559.13;5267234;28;20049;-81
2023/01/19 11:01:25;;;;;;;34.60;20.90;;;;;;;2.61;100.00;100564.44;5277304;28;20025;-82
2023/01/19 11:04:04;;;;;;;37.88;21.85;;;;;;;3.01;100.00;100561.81;5278837;28;20029;-82
2023/01/19 11:06:35;;;;;;;34.22;20.70;;;;;;;3.70;100.00;100564.28;5276363;28;20033;-81
2023/01/19 11:09:11;;;;;;;37.08;22.73;;;;;;;5.15;100.00;100563.72;5261289;28;20472;-82
2023/01/19 11:11:49;;;;;;;31.55;17.73;;;;;;;5.75;100.00;100556.53;5277795;28;20021;-82
2023/01/19 11:14:25;;;;;;;25.02;16.50;;;;;;;6.57;100.00;100559.81;5277960;28;20492;-81
2023/01/19 11:16:57;;;;;;;22.92;14.75;;;;;;;7.85;100.00;100551.03;5275612;28;20033;-81
2023/01/19 11:19:31;;;;;;;23.00;13.68;;;;;;;8.36;100.00;100562.56;5277551;28;20033;-82
2023/01/19 11:22:21;;;;;;;18.13;12.65;;;;;;;9.25;100.00;100558.09;5274008;28;20076;-82
2023/01/19 11:24:57;;;;;;;20.15;11.57;;;;;;;9.84;100.00;100550.03;5275745;28;20025;-82
2023/01/19 11:27:31;;;;;;;16.55;10.60;;;;;;;9.63;100.00;100550.22;5275257;28;20496;-82
2023/01/19 11:30:14;;;;;;;19.20;11.63;;;;;;;9.65;100.00;100549.06;5277370;28;20075;-82
2023/01/19 11:32:45;;;;;;;13.48;10.05;;;;;;;9.36;100.00;100540.31;5275857;28;20568;-82
2023/01/19 11:35:38;;;;;;;14.57;10.40;;;;;;;10.47;100.00;100540.53;5280717;28;20067;-88
2023/01/19 11:38:12;;;;;;;19.63;10.05;;;;;;;10.38;100.00;100544.94;5269159;28;20034;-83
2023/01/19 11:40:57;;;;;;;15.73;9.25;;;;;;;10.78;100.00;100549.88;5253069;28;20032;-81
2023/01/19 11:43:29;;;;;;;16.75;8.77;;;;;;;10.33;100.00;100540.03;5273568;28;20039;-81
2023/01/19 11:46:01;;;;;;;12.48;8.10;;;;;;;10.78;100.00;100549.03;5275465;28;20021;-82